VIRTUAL NORWEGIAN AEROCLUB

VIRTUAL NORWEGIAN AEROCLUB! A new look to our va.




 METAR AND TAF INFORMATION
METAR FOR GMMC
ADDS - METARS form results

(1926 UTC 09 August 2020)
Data provider http://aviationweather.gov/metar/data/
 
METAR text: GMMC 091900Z 32008KT 9999 BKN016 23/20 Q1013
Conditions at: GMMC (CASABLANCA/ANFA , MA) observed 1900 UTC 09 August 2020
Temperature: 23.0°C (73°F)
Dewpoint: 20.0°C (68°F) [RH = 83%]
Pressure (altimeter): 29.91 inches Hg (1013.0 mb)
Winds: from the NW (320 degrees) at 9 MPH (8 knots; 4.1 m/s)
Visibility: 6 or more miles (10+ km)
Ceiling: 1600 feet AGL
Clouds: broken clouds at 1600 feet AGL
Weather: no significant weather observed at this time

 AIRPORT MAP

 RUNWAY INFORMATION
Runway 03 Runway length 6168 ft Runway width 0 ft
Runway elevation 203 ft Runway displaced threshold 0 ft Runway heading 0
Runway 21 Runway length 6168 ft Runway width 0 ft
Runway elevation 150 ft Runway displaced threshold 0 ft Runway heading 0

 AIRPORT FREQUENCIES

 AIRPORT NEAR NAVIGATION AIDS
Type VOR-DME Name Casablanca Frequency 116900 KHZ